Shelburn, Indiana
Current Conditions -  °F | °C
As of 8:15 AM on Saturday 25 Oct 2014 (Local Time) from KRSV Reporting Station
Clear Clear  
Wind Chill: 14°   Ceiling: Unl
Heat Index: 14°   Visibility: 10mi
Dew Point: 13°   Wind: 7mph
Humidity: 93%   Direction: 250°WSW
Pressure: 30.01"   Gusts: NA
Location:  39.18°N, 87.39°W
Report Text: KRSV 251215Z AUTO 25006KT 10SM CLR 14/13 A3001 RMK AO2 T01420131
Loading
Personal Weather Stations






























Interactive Weather Map
Tropical Storm Tracking
New forecast layout! Learn more

10-Day Weather Forecast

Advertisements
Track Severe Weather on mobile